Terminal Aerodrome Forecast
Issued by NWS

Home | Current Version | Previous Version | Text Only | Print | Product List | Glossary On
Versions: 1 2 3 4 5 6 7 8 9 10 11 12 13 14 15 16 17 18 19 20
000
FTUS46 KMFR 022325
TAFRBG
TAF
KRBG 022325Z 0300/0324 VRB03KT P6SM OVC040
     FM030700 VRB03KT P6SM OVC020
     FM031000 00000KT 1/2SM FG OVC002
     FM031600 VRB03KT P6SM SCT008 OVC025=

USA.gov is the U.S. government's official web portal to all federal, state and local government web resources and services.